Adamsville, Rhode Island
Current Conditions -  °F | °C
As of 11:53 AM on Thursday 18 Dec 2014 (Local Time) from KUUU Reporting Station
Broken Clouds Broken Clouds  
Wind Chill: 34°   Ceiling: 3500
Heat Index: 42°   Visibility: 10mi
Dew Point: 28°   Wind: 16mph
Humidity: 58%   Direction: 290°WNW
Pressure: 29.81"   Gusts: 28mph
Location:  41.55°N, 71.13°W
Report Text: KUUU 181653Z AUTO 29014G24KT 10SM BKN035 06/M02 A2981 RMK AO2 SLP094 T00561022
Loading
Personal Weather Stations






























Interactive Weather Map New forecast layout! Learn more

10-Day Weather Forecast

Advertisements
Track Severe Weather on mobile